createdAt,value
2023-03-24T00:03:08.052Z,7.30
2023-03-24T00:06:35.205Z,7.24
2023-03-24T00:09:41.178Z,6.93
2023-03-24T00:12:48.941Z,6.87
2023-03-24T00:15:57.550Z,6.69
2023-03-24T00:19:10.919Z,7.25
2023-03-24T00:22:17.285Z,7.20
2023-03-24T00:25:30.050Z,7.01
2023-03-24T00:28:39.418Z,7.14
2023-03-24T00:31:49.992Z,7.35
2023-03-24T00:34:56.170Z,7.23
2023-03-24T00:38:03.205Z,7.62
2023-03-24T00:41:18.157Z,7.06
2023-03-24T00:44:29.206Z,7.98
2023-03-24T00:47:39.542Z,8.88
2023-03-24T00:50:49.834Z,9.38
2023-03-24T00:53:58.245Z,9.43
2023-03-24T00:57:06.645Z,9.46
2023-03-24T01:00:17.235Z,9.07
2023-03-24T01:03:29.164Z,9.21
2023-03-24T01:06:41.457Z,9.41
2023-03-24T01:09:58.974Z,10.14
2023-03-24T01:13:07.619Z,12.34
2023-03-24T01:16:15.941Z,13.71
2023-03-24T01:19:26.605Z,13.18
2023-03-24T01:22:37.843Z,11.52
2023-03-24T01:25:48.445Z,9.75
2023-03-24T01:28:55.376Z,9.40
2023-03-24T01:32:01.404Z,8.90
2023-03-24T01:35:11.879Z,8.79
2023-03-24T01:38:20.511Z,9.82
2023-03-24T01:41:35.686Z,9.26
2023-03-24T01:44:42.426Z,7.82
2023-03-24T01:47:49.509Z,7.99
2023-03-24T01:51:06.443Z,7.78
2023-03-24T01:54:22.223Z,8.22
2023-03-24T01:57:46.821Z,7.84
2023-03-24T02:00:54.949Z,8.56
2023-03-24T02:04:28.227Z,9.81
2023-03-24T02:08:25.025Z,9.95
2023-03-24T02:11:48.450Z,10.03
2023-03-24T02:14:56.798Z,10.52
2023-03-24T02:18:18.729Z,10.35
2023-03-24T02:22:10.156Z,11.14
2023-03-24T02:26:03.592Z,12.67
2023-03-24T02:30:09.050Z,13.30
2023-03-24T02:34:18.021Z,13.83
2023-03-24T02:38:15.608Z,14.74
2023-03-24T02:41:37.340Z,14.70
2023-03-24T02:45:00.220Z,14.80
2023-03-24T02:48:30.652Z,14.40
2023-03-24T02:51:54.685Z,14.06
2023-03-24T02:55:09.903Z,12.99
2023-03-24T02:58:32.493Z,12.42
2023-03-24T03:01:56.480Z,11.92
2023-03-24T03:05:28.392Z,12.09
2023-03-24T03:08:39.579Z,12.39
2023-03-24T03:11:56.144Z,12.42
2023-03-24T03:15:13.172Z,13.51
2023-03-24T03:18:29.562Z,14.16
2023-03-24T03:21:45.464Z,14.32
2023-03-24T03:25:01.560Z,12.91
2023-03-24T03:28:13.656Z,13.44
2023-03-24T03:31:32.921Z,12.31
2023-03-24T03:34:50.983Z,12.30
2023-03-24T03:38:17.933Z,12.44
2023-03-24T03:41:27.308Z,12.36
2023-03-24T03:44:35.588Z,13.04
2023-03-24T03:47:44.890Z,13.75
2023-03-24T03:50:59.862Z,14.78
2023-03-24T03:54:20.064Z,14.69
2023-03-24T03:57:28.471Z,14.94
2023-03-24T04:00:59.691Z,15.45
2023-03-24T04:05:14.081Z,15.31
2023-03-24T04:08:51.942Z,15.28
2023-03-24T04:12:28.787Z,15.94
2023-03-24T04:16:05.073Z,16.21
2023-03-24T04:20:05.953Z,16.04
2023-03-24T04:23:31.250Z,16.34
2023-03-24T04:26:51.596Z,15.65
2023-03-24T04:30:16.958Z,15.49
2023-03-24T04:33:44.022Z,17.29
2023-03-24T04:37:03.128Z,19.64
2023-03-24T04:40:29.754Z,22.52
2023-03-24T04:43:48.705Z,20.25
2023-03-24T04:47:01.815Z,19.72
2023-03-24T04:50:14.200Z,20.01
2023-03-24T04:53:23.938Z,25.88
2023-03-24T04:56:41.476Z,30.66
2023-03-24T05:00:02.808Z,34.74
2023-03-24T05:03:10.009Z,28.43
2023-03-24T05:06:17.819Z,24.88
2023-03-24T05:09:31.865Z,24.93
2023-03-24T05:12:40.693Z,26.83
2023-03-24T05:15:52.711Z,27.68
2023-03-24T05:19:20.800Z,25.62
2023-03-24T05:22:27.489Z,23.01
2023-03-24T05:25:36.979Z,22.92
2023-03-24T05:28:43.260Z,23.79
2023-03-24T05:31:52.029Z,24.01
2023-03-24T05:35:01.293Z,23.87
2023-03-24T05:38:12.494Z,23.33
2023-03-24T05:41:28.666Z,24.62
2023-03-24T05:44:36.157Z,28.04
2023-03-24T05:47:51.843Z,30.72
2023-03-24T05:51:15.892Z,32.41
2023-03-24T05:54:22.665Z,32.63
2023-03-24T05:57:36.984Z,32.20
2023-03-24T06:01:01.919Z,32.51
2023-03-24T06:04:15.236Z,35.63
2023-03-24T06:07:22.506Z,38.97
2023-03-24T06:10:30.106Z,36.78
2023-03-24T06:13:40.018Z,38.91
2023-03-24T06:16:50.282Z,43.01
2023-03-24T06:20:03.216Z,52.96
2023-03-24T06:23:24.169Z,58.62
2023-03-24T06:26:44.970Z,52.39
2023-03-24T06:29:56.315Z,43.09
2023-03-24T06:33:02.654Z,38.07
2023-03-24T06:36:11.635Z,33.94
2023-03-24T06:39:21.949Z,31.62
2023-03-24T06:42:29.063Z,29.17
2023-03-24T06:45:39.757Z,29.85
2023-03-24T06:48:54.431Z,29.62
2023-03-24T06:52:00.715Z,29.83
2023-03-24T06:55:13.183Z,29.27
2023-03-24T06:58:24.997Z,28.57
2023-03-24T07:01:49.828Z,28.11
2023-03-24T07:05:01.819Z,27.56
2023-03-24T07:11:36.943Z,27.36
2023-03-24T07:14:46.315Z,27.53
2023-03-24T07:17:55.204Z,26.96
2023-03-24T07:21:15.528Z,27.36
2023-03-24T07:24:21.886Z,28.73
2023-03-24T07:27:44.534Z,30.40
2023-03-24T07:30:53.931Z,29.29
2023-03-24T07:34:05.042Z,28.87
2023-03-24T07:37:12.855Z,29.10
2023-03-24T07:40:20.853Z,29.59
2023-03-24T07:43:27.429Z,28.40
2023-03-24T07:46:55.657Z,25.80
2023-03-24T07:50:07.218Z,24.37
2023-03-24T07:53:20.315Z,23.88
2023-03-24T07:56:27.562Z,23.32
2023-03-24T07:59:37.314Z,22.38
2023-03-24T08:03:10.045Z,21.03
2023-03-24T08:06:29.836Z,20.98
2023-03-24T08:09:56.172Z,20.95
2023-03-24T08:13:04.061Z,22.00
2023-03-24T08:16:11.578Z,21.81
2023-03-24T08:19:18.435Z,20.56
2023-03-24T08:22:27.512Z,20.34
2023-03-24T08:25:34.962Z,19.74
2023-03-24T08:28:41.895Z,18.94
2023-03-24T08:31:50.529Z,18.49
2023-03-24T08:34:58.544Z,18.39
2023-03-24T08:38:12.228Z,18.87
2023-03-24T08:41:18.334Z,18.17
2023-03-24T08:44:25.281Z,17.80
2023-03-24T08:47:33.083Z,16.85
2023-03-24T08:50:43.398Z,15.39
2023-03-24T08:53:54.241Z,14.39
2023-03-24T08:57:01.148Z,13.88
2023-03-24T09:00:15.196Z,13.75
2023-03-24T09:03:24.409Z,12.48
2023-03-24T09:06:33.173Z,12.05
2023-03-24T09:09:42.750Z,12.10
2023-03-24T09:12:49.747Z,13.17
2023-03-24T09:16:02.966Z,11.84
2023-03-24T09:19:09.547Z,12.19
2023-03-24T09:22:19.018Z,11.95
2023-03-24T09:25:34.017Z,12.14
2023-03-24T09:28:40.884Z,11.90
2023-03-24T09:31:46.891Z,10.86
2023-03-24T09:34:54.044Z,11.42
2023-03-24T09:38:00.244Z,11.72
2023-03-24T09:41:23.200Z,12.03
2023-03-24T09:44:40.054Z,13.31
2023-03-24T09:48:08.277Z,12.82
2023-03-24T09:51:52.153Z,13.42
2023-03-24T09:55:03.507Z,13.65
2023-03-24T09:58:16.819Z,14.18
2023-03-24T10:01:24.433Z,13.32
2023-03-24T10:04:35.140Z,13.31
2023-03-24T10:07:53.651Z,13.23
2023-03-24T10:11:07.695Z,13.66
2023-03-24T10:14:50.283Z,12.90
2023-03-24T10:18:11.787Z,12.30
2023-03-24T10:21:28.549Z,12.03
2023-03-24T10:24:48.556Z,11.92
2023-03-24T10:28:02.861Z,11.89
2023-03-24T10:31:20.597Z,12.04
2023-03-24T10:34:34.608Z,11.96
2023-03-24T10:37:41.506Z,11.89
2023-03-24T10:40:50.694Z,11.63
2023-03-24T10:44:01.334Z,12.09
2023-03-24T10:47:17.572Z,12.85
2023-03-24T10:50:30.411Z,13.46
2023-03-24T10:53:39.736Z,12.59
2023-03-24T10:56:49.120Z,12.20
2023-03-24T11:00:01.670Z,12.79
2023-03-24T11:03:19.251Z,12.33
2023-03-24T11:06:26.402Z,12.59
2023-03-24T11:09:33.646Z,12.83
2023-03-24T11:12:46.524Z,12.15
2023-03-24T11:16:14.408Z,12.06
2023-03-24T11:19:27.481Z,12.62
2023-03-24T11:22:34.252Z,12.70
2023-03-24T11:25:46.159Z,12.36
2023-03-24T11:28:58.870Z,12.75
2023-03-24T11:32:16.952Z,12.51
2023-03-24T11:35:39.111Z,12.63
2023-03-24T11:39:04.430Z,12.68
2023-03-24T11:42:20.609Z,13.29
2023-03-24T11:45:36.992Z,12.77
2023-03-24T11:48:53.650Z,12.15
2023-03-24T11:52:05.620Z,12.60
2023-03-24T11:55:21.675Z,12.42
2023-03-24T11:58:40.380Z,12.61
2023-03-24T12:01:59.011Z,13.72
2023-03-24T12:05:32.305Z,13.88
2023-03-24T12:09:04.546Z,13.49
2023-03-24T12:12:38.429Z,13.21
2023-03-24T12:16:04.117Z,13.05
2023-03-24T12:20:24.584Z,13.09
2023-03-24T12:23:50.916Z,12.89
2023-03-24T12:27:03.960Z,13.29
2023-03-24T12:30:26.818Z,13.36
2023-03-24T12:33:54.259Z,13.38
2023-03-24T12:37:14.735Z,13.60
2023-03-24T12:41:03.773Z,13.32
2023-03-24T12:44:44.510Z,13.76
2023-03-24T12:48:22.293Z,14.21
2023-03-24T12:51:47.025Z,14.28
2023-03-24T12:55:06.979Z,14.18
2023-03-24T12:58:28.041Z,14.29
2023-03-24T13:01:43.045Z,14.11
2023-03-24T13:04:56.505Z,15.10
2023-03-24T13:08:14.543Z,15.98
2023-03-24T13:11:47.934Z,15.27
2023-03-24T13:15:10.635Z,14.69
2023-03-24T13:18:34.788Z,14.79
2023-03-24T13:21:41.671Z,15.27
2023-03-24T13:24:50.664Z,15.39
2023-03-24T13:28:14.567Z,15.23
2023-03-24T13:31:30.539Z,15.01
2023-03-24T13:34:44.546Z,15.35
2023-03-24T13:38:05.001Z,16.02
2023-03-24T13:41:24.368Z,15.41
2023-03-24T13:44:41.963Z,14.89
2023-03-24T13:48:09.394Z,14.86
2023-03-24T13:51:25.020Z,14.08
2023-03-24T13:54:33.997Z,14.83
2023-03-24T13:57:45.225Z,14.78
2023-03-24T14:01:34.669Z,14.73
2023-03-24T14:05:05.852Z,15.14
2023-03-24T14:08:22.144Z,15.44
2023-03-24T14:11:49.866Z,14.45
2023-03-24T14:15:23.966Z,14.63
2023-03-24T14:18:46.301Z,12.96
2023-03-24T14:22:18.534Z,11.17
2023-03-24T14:25:33.415Z,11.21
2023-03-24T14:28:46.966Z,10.99
2023-03-24T14:35:34.874Z,11.69
2023-03-24T14:38:47.665Z,11.31
2023-03-24T14:41:55.565Z,10.69
2023-03-24T14:45:04.832Z,10.10
2023-03-24T14:48:32.837Z,9.28
2023-03-24T14:51:50.639Z,9.34
2023-03-24T14:55:06.078Z,9.78
2023-03-24T14:58:27.483Z,9.81
2023-03-24T15:01:38.684Z,10.59
2023-03-24T15:04:48.338Z,13.88
2023-03-24T15:08:19.197Z,12.58
2023-03-24T15:11:33.604Z,12.18
2023-03-24T15:14:41.390Z,13.03
2023-03-24T15:17:49.952Z,12.31
2023-03-24T15:21:05.382Z,13.85
2023-03-24T15:24:38.492Z,13.46
2023-03-24T15:27:57.850Z,12.99
2023-03-24T15:31:05.082Z,13.17
2023-03-24T15:34:32.103Z,13.30
2023-03-24T15:37:46.249Z,13.72
2023-03-24T15:41:05.117Z,15.83
2023-03-24T15:44:23.636Z,17.12
2023-03-24T15:47:40.230Z,18.06
2023-03-24T15:51:01.146Z,16.52
2023-03-24T15:54:08.131Z,14.08
2023-03-24T15:57:25.960Z,12.45
2023-03-24T16:00:45.999Z,14.40
2023-03-24T16:03:52.521Z,15.10
2023-03-24T16:07:00.867Z,13.03
2023-03-24T16:10:28.081Z,14.27
2023-03-24T16:13:35.022Z,15.78
2023-03-24T16:16:46.873Z,14.37
2023-03-24T16:19:54.034Z,13.31
2023-03-24T16:23:00.134Z,17.72
2023-03-24T16:26:09.753Z,17.09
2023-03-24T16:29:21.177Z,13.94
2023-03-24T16:32:33.780Z,13.26
2023-03-24T16:35:40.115Z,14.97
2023-03-24T16:38:49.391Z,16.17
2023-03-24T16:41:56.123Z,19.05
2023-03-24T16:45:02.927Z,19.24
2023-03-24T16:48:14.370Z,21.15
2023-03-24T16:51:21.790Z,22.28
2023-03-24T16:54:27.840Z,22.52
2023-03-24T16:57:35.452Z,20.37
2023-03-24T17:00:44.089Z,22.57
2023-03-24T17:03:54.815Z,26.99
2023-03-24T17:07:07.461Z,22.47
2023-03-24T17:10:25.919Z,19.77
2023-03-24T17:13:31.954Z,22.80
2023-03-24T17:16:43.894Z,24.60
2023-03-24T17:19:54.641Z,26.27
2023-03-24T17:23:01.944Z,24.19
2023-03-24T17:26:11.157Z,21.70
2023-03-24T17:29:18.450Z,17.95
2023-03-24T17:32:26.589Z,20.98
2023-03-24T17:35:36.386Z,25.04
2023-03-24T17:38:44.347Z,28.75
2023-03-24T17:41:57.959Z,30.20
2023-03-24T17:45:08.756Z,28.02
2023-03-24T17:48:21.755Z,32.33
2023-03-24T17:51:33.352Z,27.45
2023-03-24T17:54:40.376Z,33.12
2023-03-24T17:57:47.652Z,35.14
2023-03-24T18:01:08.999Z,32.23
2023-03-24T18:04:15.334Z,30.25
2023-03-24T18:07:27.572Z,27.84
2023-03-24T18:10:40.670Z,28.97
2023-03-24T18:13:54.393Z,29.35
2023-03-24T18:17:00.527Z,32.17
2023-03-24T18:20:15.088Z,29.38
2023-03-24T18:23:23.744Z,32.75
2023-03-24T18:26:31.043Z,27.04
2023-03-24T18:29:37.157Z,25.40
2023-03-24T18:32:49.451Z,24.06
2023-03-24T18:35:57.316Z,23.03
2023-03-24T18:39:24.174Z,22.79
2023-03-24T18:42:30.469Z,22.94
2023-03-24T18:45:37.520Z,23.49
2023-03-24T18:48:47.962Z,22.76
2023-03-24T18:51:54.929Z,21.54
2023-03-24T18:55:05.375Z,19.86
2023-03-24T18:58:15.562Z,21.23
2023-03-24T19:01:24.401Z,21.88
2023-03-24T19:04:31.425Z,22.09
2023-03-24T19:07:37.625Z,21.28
2023-03-24T19:10:49.054Z,18.70
2023-03-24T19:13:55.262Z,18.07
2023-03-24T19:17:07.236Z,19.79
2023-03-24T19:20:15.683Z,16.96
2023-03-24T19:23:22.972Z,16.19
2023-03-24T19:26:34.939Z,16.59
2023-03-24T19:29:42.482Z,14.69
2023-03-24T19:32:49.801Z,15.56
2023-03-24T19:35:58.726Z,15.63
2023-03-24T19:39:05.048Z,17.08
2023-03-24T19:42:22.020Z,18.07
2023-03-24T19:45:28.513Z,17.13
2023-03-24T19:48:36.654Z,18.00
2023-03-24T19:51:42.622Z,19.29
2023-03-24T19:54:52.786Z,20.35
2023-03-24T19:58:03.538Z,23.69
2023-03-24T20:01:10.420Z,26.99
2023-03-24T20:04:19.284Z,22.44
2023-03-24T20:07:29.514Z,22.99
2023-03-24T20:10:43.130Z,25.91
2023-03-24T20:13:52.562Z,28.86
2023-03-24T20:16:58.629Z,28.70
2023-03-24T20:20:05.706Z,26.06
2023-03-24T20:23:12.558Z,24.59
2023-03-24T20:26:19.454Z,20.61
2023-03-24T20:29:28.221Z,15.21
2023-03-24T20:32:35.248Z,14.51
2023-03-24T20:35:41.301Z,15.87
2023-03-24T20:38:48.131Z,14.47
2023-03-24T20:41:54.335Z,14.22
2023-03-24T20:45:04.029Z,13.89
2023-03-24T20:48:10.314Z,14.78
2023-03-24T20:51:17.565Z,14.05
2023-03-24T20:54:24.330Z,13.67
2023-03-24T20:57:31.785Z,12.94
2023-03-24T21:00:46.440Z,12.04
2023-03-24T21:04:04.798Z,11.67
2023-03-24T21:07:15.407Z,11.85
2023-03-24T21:10:22.386Z,12.99
2023-03-24T21:13:37.190Z,14.65
2023-03-24T21:16:48.306Z,26.07
2023-03-24T21:19:54.953Z,23.96
2023-03-24T21:23:04.690Z,17.72
2023-03-24T21:26:15.999Z,15.74
2023-03-24T21:29:22.963Z,21.41
2023-03-24T21:32:32.040Z,22.51
2023-03-24T21:35:38.935Z,23.07
2023-03-24T21:38:45.206Z,19.25
2023-03-24T21:41:52.760Z,20.32
2023-03-24T21:44:58.780Z,25.13
2023-03-24T21:48:10.279Z,26.55
2023-03-24T21:51:19.048Z,32.31
2023-03-24T21:54:27.013Z,32.72
2023-03-24T21:57:33.061Z,27.15
2023-03-24T22:00:40.442Z,27.67
2023-03-24T22:03:49.089Z,21.28
2023-03-24T22:06:56.573Z,20.46
2023-03-24T22:10:03.600Z,17.67
2023-03-24T22:13:28.577Z,16.52
2023-03-24T22:16:37.674Z,30.65
2023-03-24T22:19:50.395Z,31.27
2023-03-24T22:22:56.593Z,33.29
2023-03-24T22:26:04.815Z,37.63
2023-03-24T22:29:11.317Z,37.63
2023-03-24T22:32:36.676Z,39.84
2023-03-24T22:35:45.587Z,32.87
2023-03-24T22:38:52.499Z,40.45
2023-03-24T22:41:58.775Z,26.29
2023-03-24T22:45:05.641Z,17.74
2023-03-24T22:48:11.962Z,16.29
2023-03-24T22:51:21.987Z,15.98
2023-03-24T22:54:28.201Z,26.70
2023-03-24T22:57:36.332Z,28.97
2023-03-24T23:00:42.414Z,18.00
2023-03-24T23:03:49.240Z,14.99
2023-03-24T23:06:58.808Z,15.84
2023-03-24T23:10:06.788Z,14.54
2023-03-24T23:13:13.640Z,17.42
2023-03-24T23:16:21.560Z,26.93
2023-03-24T23:19:28.434Z,42.74
2023-03-24T23:22:39.241Z,51.26
2023-03-24T23:25:48.886Z,25.38
2023-03-24T23:28:59.398Z,25.23
2023-03-24T23:32:05.660Z,27.30
2023-03-24T23:35:14.712Z,20.43
2023-03-24T23:38:36.598Z,23.12
2023-03-24T23:41:43.332Z,27.25
2023-03-24T23:44:49.509Z,28.28
2023-03-24T23:47:57.629Z,31.01
2023-03-24T23:51:08.177Z,20.52
2023-03-24T23:54:17.819Z,37.45
2023-03-24T23:57:23.998Z,50.76
